sensor_id;sensor_type;location;lat;lon;timestamp;temperature;humidity
15455;DHT22;21057;51.024;7.540;2023-04-01T00:01:36;10.40;99.90
15455;DHT22;21057;51.024;7.540;2023-04-01T00:04:12;10.60;99.90
15455;DHT22;21057;51.024;7.540;2023-04-01T00:06:39;10.40;99.90
15455;DHT22;21057;51.024;7.540;2023-04-01T00:09:07;10.40;99.90
15455;DHT22;21057;51.024;7.540;2023-04-01T00:11:34;10.40;99.90
15455;DHT22;21057;51.024;7.540;2023-04-01T00:14:01;10.50;99.90
15455;DHT22;21057;51.024;7.540;2023-04-01T00:16:34;10.60;99.90
15455;DHT22;21057;51.024;7.540;2023-04-01T00:19:00;10.60;99.90
15455;DHT22;21057;51.024;7.540;2023-04-01T00:21:28;10.60;99.90
15455;DHT22;21057;51.024;7.540;2023-04-01T00:24:04;10.60;99.90
15455;DHT22;21057;51.024;7.540;2023-04-01T00:26:44;10.50;99.90
15455;DHT22;21057;51.024;7.540;2023-04-01T00:29:15;10.50;99.90
15455;DHT22;21057;51.024;7.540;2023-04-01T00:31:48;10.60;99.90
15455;DHT22;21057;51.024;7.540;2023-04-01T00:34:15;10.60;99.90
15455;DHT22;21057;51.024;7.540;2023-04-01T00:36:41;10.60;99.90
15455;DHT22;21057;51.024;7.540;2023-04-01T00:39:09;10.60;99.90
15455;DHT22;21057;51.024;7.540;2023-04-01T00:41:36;10.60;99.90
15455;DHT22;21057;51.024;7.540;2023-04-01T00:44:18;10.60;99.90
15455;DHT22;21057;51.024;7.540;2023-04-01T00:47:04;10.40;99.90
15455;DHT22;21057;51.024;7.540;2023-04-01T00:49:50;10.50;99.90
15455;DHT22;21057;51.024;7.540;2023-04-01T00:52:21;10.60;99.90
15455;DHT22;21057;51.024;7.540;2023-04-01T00:54:59;10.70;99.90
15455;DHT22;21057;51.024;7.540;2023-04-01T00:57:32;10.70;99.90
15455;DHT22;21057;51.024;7.540;2023-04-01T01:00:04;10.60;99.90
15455;DHT22;21057;51.024;7.540;2023-04-01T01:02:33;10.70;99.90
15455;DHT22;21057;51.024;7.540;2023-04-01T01:05:01;10.70;99.90
15455;DHT22;21057;51.024;7.540;2023-04-01T01:07:35;10.60;99.90
15455;DHT22;21057;51.024;7.540;2023-04-01T01:10:10;10.60;99.90
15455;DHT22;21057;51.024;7.540;2023-04-01T01:12:40;10.50;99.90
15455;DHT22;21057;51.024;7.540;2023-04-01T01:15:26;10.60;99.90
15455;DHT22;21057;51.024;7.540;2023-04-01T01:17:58;10.60;99.90
15455;DHT22;21057;51.024;7.540;2023-04-01T01:24:23;10.60;99.90
15455;DHT22;21057;51.024;7.540;2023-04-01T01:26:58;10.40;99.90
15455;DHT22;21057;51.024;7.540;2023-04-01T01:29:50;10.20;99.90
15455;DHT22;21057;51.024;7.540;2023-04-01T01:32:40;10.30;99.90
15455;DHT22;21057;51.024;7.540;2023-04-01T01:35:20;10.30;99.90
15455;DHT22;21057;51.024;7.540;2023-04-01T01:37:52;10.40;99.90
15455;DHT22;21057;51.024;7.540;2023-04-01T01:40:20;10.30;99.90
15455;DHT22;21057;51.024;7.540;2023-04-01T01:42:51;10.40;99.90
15455;DHT22;21057;51.024;7.540;2023-04-01T01:45:22;10.50;99.90
15455;DHT22;21057;51.024;7.540;2023-04-01T01:47:56;10.50;99.90
15455;DHT22;21057;51.024;7.540;2023-04-01T01:50:27;10.50;99.90
15455;DHT22;21057;51.024;7.540;2023-04-01T01:53:03;10.30;99.90
15455;DHT22;21057;51.024;7.540;2023-04-01T01:55:34;10.40;99.90
15455;DHT22;21057;51.024;7.540;2023-04-01T01:58:05;10.40;99.90
15455;DHT22;21057;51.024;7.540;2023-04-01T02:00:35;10.30;99.90
15455;DHT22;21057;51.024;7.540;2023-04-01T02:03:03;10.30;99.90
15455;DHT22;21057;51.024;7.540;2023-04-01T02:05:32;10.50;99.90
15455;DHT22;21057;51.024;7.540;2023-04-01T02:08:08;10.50;99.90
15455;DHT22;21057;51.024;7.540;2023-04-01T02:10:42;10.40;99.90
15455;DHT22;21057;51.024;7.540;2023-04-01T02:13:25;10.60;99.90
15455;DHT22;21057;51.024;7.540;2023-04-01T02:15:57;10.50;99.90
15455;DHT22;21057;51.024;7.540;2023-04-01T02:18:28;10.60;99.90
15455;DHT22;21057;51.024;7.540;2023-04-01T02:21:05;10.70;99.90
15455;DHT22;21057;51.024;7.540;2023-04-01T02:23:33;10.60;99.90
15455;DHT22;21057;51.024;7.540;2023-04-01T02:26:01;10.50;99.90
15455;DHT22;21057;51.024;7.540;2023-04-01T02:28:29;10.40;99.90
15455;DHT22;21057;51.024;7.540;2023-04-01T02:30:58;10.50;99.90
15455;DHT22;21057;51.024;7.540;2023-04-01T02:33:28;10.40;99.90
15455;DHT22;21057;51.024;7.540;2023-04-01T02:35:55;10.50;99.90
15455;DHT22;21057;51.024;7.540;2023-04-01T02:38:31;10.60;99.90
15455;DHT22;21057;51.024;7.540;2023-04-01T02:40:59;10.60;99.90
15455;DHT22;21057;51.024;7.540;2023-04-01T02:43:35;10.40;99.90
15455;DHT22;21057;51.024;7.540;2023-04-01T02:46:25;10.20;99.90
15455;DHT22;21057;51.024;7.540;2023-04-01T02:48:52;10.10;99.90
15455;DHT22;21057;51.024;7.540;2023-04-01T02:51:20;10.20;99.90
15455;DHT22;21057;51.024;7.540;2023-04-01T02:53:48;10.20;99.90
15455;DHT22;21057;51.024;7.540;2023-04-01T02:56:15;10.20;99.90
15455;DHT22;21057;51.024;7.540;2023-04-01T02:58:43;10.30;99.90
15455;DHT22;21057;51.024;7.540;2023-04-01T03:01:10;10.30;99.90
15455;DHT22;21057;51.024;7.540;2023-04-01T03:03:37;10.30;99.90
15455;DHT22;21057;51.024;7.540;2023-04-01T03:06:05;10.30;99.90
15455;DHT22;21057;51.024;7.540;2023-04-01T03:08:33;10.30;99.90
15455;DHT22;21057;51.024;7.540;2023-04-01T03:11:02;10.20;99.90
15455;DHT22;21057;51.024;7.540;2023-04-01T03:13:28;10.20;99.90
15455;DHT22;21057;51.024;7.540;2023-04-01T03:16:05;10.20;99.90
15455;DHT22;21057;51.024;7.540;2023-04-01T03:18:32;10.10;99.90
15455;DHT22;21057;51.024;7.540;2023-04-01T03:21:12;10.00;99.90
15455;DHT22;21057;51.024;7.540;2023-04-01T03:23:39;10.10;99.90
15455;DHT22;21057;51.024;7.540;2023-04-01T03:26:09;10.00;99.90
15455;DHT22;21057;51.024;7.540;2023-04-01T03:28:37;10.10;99.90
15455;DHT22;21057;51.024;7.540;2023-04-01T03:31:04;10.20;99.90
15455;DHT22;21057;51.024;7.540;2023-04-01T03:33:33;10.10;99.90
15455;DHT22;21057;51.024;7.540;2023-04-01T03:36:05;10.20;99.90
15455;DHT22;21057;51.024;7.540;2023-04-01T03:38:33;10.30;99.90
15455;DHT22;21057;51.024;7.540;2023-04-01T03:40:59;10.40;99.90
15455;DHT22;21057;51.024;7.540;2023-04-01T03:43:29;10.30;99.90
15455;DHT22;21057;51.024;7.540;2023-04-01T03:45:56;10.10;99.90
15455;DHT22;21057;51.024;7.540;2023-04-01T03:48:26;9.90;99.90
15455;DHT22;21057;51.024;7.540;2023-04-01T03:50:54;10.00;99.90
15455;DHT22;21057;51.024;7.540;2023-04-01T03:53:22;10.10;99.90
15455;DHT22;21057;51.024;7.540;2023-04-01T03:55:49;10.20;99.90
15455;DHT22;21057;51.024;7.540;2023-04-01T03:58:16;10.30;99.90
15455;DHT22;21057;51.024;7.540;2023-04-01T04:00:45;10.20;99.90
15455;DHT22;21057;51.024;7.540;2023-04-01T04:03:12;10.40;99.90
15455;DHT22;21057;51.024;7.540;2023-04-01T04:05:46;10.40;99.90
15455;DHT22;21057;51.024;7.540;2023-04-01T04:08:13;10.20;99.90
15455;DHT22;21057;51.024;7.540;2023-04-01T04:10:41;10.20;99.90
15455;DHT22;21057;51.024;7.540;2023-04-01T04:13:09;10.10;99.90
15455;DHT22;21057;51.024;7.540;2023-04-01T04:15:38;10.10;99.90
15455;DHT22;21057;51.024;7.540;2023-04-01T04:18:06;10.20;99.90
15455;DHT22;21057;51.024;7.540;2023-04-01T04:20:33;10.30;99.90
15455;DHT22;21057;51.024;7.540;2023-04-01T04:23:00;10.20;99.90
15455;DHT22;21057;51.024;7.540;2023-04-01T04:25:27;10.20;99.90
15455;DHT22;21057;51.024;7.540;2023-04-01T04:27:54;10.30;99.90
15455;DHT22;21057;51.024;7.540;2023-04-01T04:30:21;10.30;99.90
15455;DHT22;21057;51.024;7.540;2023-04-01T04:32:48;10.40;99.90
15455;DHT22;21057;51.024;7.540;2023-04-01T04:35:17;10.30;99.90
15455;DHT22;21057;51.024;7.540;2023-04-01T04:37:44;10.20;99.90
15455;DHT22;21057;51.024;7.540;2023-04-01T04:40:11;10.10;99.90
15455;DHT22;21057;51.024;7.540;2023-04-01T04:42:38;10.10;99.90
15455;DHT22;21057;51.024;7.540;2023-04-01T04:45:06;10.20;99.90
15455;DHT22;21057;51.024;7.540;2023-04-01T04:47:33;10.30;99.90
15455;DHT22;21057;51.024;7.540;2023-04-01T04:49:59;10.30;99.90
15455;DHT22;21057;51.024;7.540;2023-04-01T04:52:28;10.30;99.90
15455;DHT22;21057;51.024;7.540;2023-04-01T04:55:14;10.20;99.90
15455;DHT22;21057;51.024;7.540;2023-04-01T04:57:53;10.20;99.90
15455;DHT22;21057;51.024;7.540;2023-04-01T05:00:20;10.10;99.90
15455;DHT22;21057;51.024;7.540;2023-04-01T05:02:47;10.10;99.90
15455;DHT22;21057;51.024;7.540;2023-04-01T05:05:14;10.20;99.90
15455;DHT22;21057;51.024;7.540;2023-04-01T05:07:44;10.30;99.90
15455;DHT22;21057;51.024;7.540;2023-04-01T05:10:11;10.40;99.90
15455;DHT22;21057;51.024;7.540;2023-04-01T05:12:38;10.30;99.90
15455;DHT22;21057;51.024;7.540;2023-04-01T05:15:06;10.50;99.90
15455;DHT22;21057;51.024;7.540;2023-04-01T05:17:35;10.20;99.90
15455;DHT22;21057;51.024;7.540;2023-04-01T05:20:02;10.20;99.90
15455;DHT22;21057;51.024;7.540;2023-04-01T05:22:29;10.20;99.90
15455;DHT22;21057;51.024;7.540;2023-04-01T05:24:57;10.20;99.90
15455;DHT22;21057;51.024;7.540;2023-04-01T05:27:25;10.00;99.90
15455;DHT22;21057;51.024;7.540;2023-04-01T05:29:51;10.10;99.90
15455;DHT22;21057;51.024;7.540;2023-04-01T05:32:19;10.20;99.90
15455;DHT22;21057;51.024;7.540;2023-04-01T05:34:46;10.20;99.90
15455;DHT22;21057;51.024;7.540;2023-04-01T05:37:13;10.20;99.90
15455;DHT22;21057;51.024;7.540;2023-04-01T05:39:40;10.20;99.90
15455;DHT22;21057;51.024;7.540;2023-04-01T05:42:08;10.20;99.90
15455;DHT22;21057;51.024;7.540;2023-04-01T05:44:35;10.30;99.90
15455;DHT22;21057;51.024;7.540;2023-04-01T05:47:03;10.40;99.90
15455;DHT22;21057;51.024;7.540;2023-04-01T05:49:30;10.50;99.90
15455;DHT22;21057;51.024;7.540;2023-04-01T05:51:57;10.50;99.90
15455;DHT22;21057;51.024;7.540;2023-04-01T05:54:24;10.30;99.90
15455;DHT22;21057;51.024;7.540;2023-04-01T05:56:54;10.40;99.90
15455;DHT22;21057;51.024;7.540;2023-04-01T05:59:22;10.40;99.90
15455;DHT22;21057;51.024;7.540;2023-04-01T06:01:50;10.40;99.90
15455;DHT22;21057;51.024;7.540;2023-04-01T06:04:17;10.40;99.90
15455;DHT22;21057;51.024;7.540;2023-04-01T06:06:44;10.50;99.90
15455;DHT22;21057;51.024;7.540;2023-04-01T06:09:14;10.40;99.90
15455;DHT22;21057;51.024;7.540;2023-04-01T06:11:51;10.50;99.90
15455;DHT22;21057;51.024;7.540;2023-04-01T06:14:30;10.60;99.90
15455;DHT22;21057;51.024;7.540;2023-04-01T06:17:13;10.50;99.90
15455;DHT22;21057;51.024;7.540;2023-04-01T06:19:47;10.40;99.90
15455;DHT22;21057;51.024;7.540;2023-04-01T06:22:31;10.40;99.90
15455;DHT22;21057;51.024;7.540;2023-04-01T06:31:32;10.30;99.90
15455;DHT22;21057;51.024;7.540;2023-04-01T06:34:26;10.40;99.90
15455;DHT22;21057;51.024;7.540;2023-04-01T06:37:19;10.50;99.90
15455;DHT22;21057;51.024;7.540;2023-04-01T06:39:59;10.50;99.90
15455;DHT22;21057;51.024;7.540;2023-04-01T06:42:46;10.50;99.90
15455;DHT22;21057;51.024;7.540;2023-04-01T06:45:26;10.60;99.90
15455;DHT22;21057;51.024;7.540;2023-04-01T06:48:06;10.30;99.90
15455;DHT22;21057;51.024;7.540;2023-04-01T06:50:53;10.40;99.90
15455;DHT22;21057;51.024;7.540;2023-04-01T06:53:29;10.50;99.90
15455;DHT22;21057;51.024;7.540;2023-04-01T06:56:02;10.40;99.90
15455;DHT22;21057;51.024;7.540;2023-04-01T06:58:35;10.30;99.90
15455;DHT22;21057;51.024;7.540;2023-04-01T07:01:07;10.30;99.90
15455;DHT22;21057;51.024;7.540;2023-04-01T07:03:39;10.40;99.90
15455;DHT22;21057;51.024;7.540;2023-04-01T07:06:13;10.30;99.90
15455;DHT22;21057;51.024;7.540;2023-04-01T07:08:42;10.50;99.90
15455;DHT22;21057;51.024;7.540;2023-04-01T07:11:13;10.40;99.90
15455;DHT22;21057;51.024;7.540;2023-04-01T07:13:46;10.30;99.90
15455;DHT22;21057;51.024;7.540;2023-04-01T07:16:17;10.30;99.90
15455;DHT22;21057;51.024;7.540;2023-04-01T07:18:49;10.30;99.90
15455;DHT22;21057;51.024;7.540;2023-04-01T07:21:26;10.30;99.90
15455;DHT22;21057;51.024;7.540;2023-04-01T07:23:59;10.20;99.90
15455;DHT22;21057;51.024;7.540;2023-04-01T07:26:33;10.30;99.90
15455;DHT22;21057;51.024;7.540;2023-04-01T07:29:08;10.10;99.90
15455;DHT22;21057;51.024;7.540;2023-04-01T07:31:54;10.10;99.90
15455;DHT22;21057;51.024;7.540;2023-04-01T07:34:34;10.20;99.90
15455;DHT22;21057;51.024;7.540;2023-04-01T07:37:10;10.30;99.90
15455;DHT22;21057;51.024;7.540;2023-04-01T07:39:48;10.30;99.90
15455;DHT22;21057;51.024;7.540;2023-04-01T07:42:24;10.10;99.90
15455;DHT22;21057;51.024;7.540;2023-04-01T07:45:09;10.10;99.90
15455;DHT22;21057;51.024;7.540;2023-04-01T07:47:55;10.10;99.90
15455;DHT22;21057;51.024;7.540;2023-04-01T07:50:29;10.20;99.90
15455;DHT22;21057;51.024;7.540;2023-04-01T07:53:05;10.30;99.90
15455;DHT22;21057;51.024;7.540;2023-04-01T07:55:40;10.30;99.90
15455;DHT22;21057;51.024;7.540;2023-04-01T07:58:13;10.40;99.90
15455;DHT22;21057;51.024;7.540;2023-04-01T08:00:48;10.50;99.90
15455;DHT22;21057;51.024;7.540;2023-04-01T08:03:37;10.40;99.90
15455;DHT22;21057;51.024;7.540;2023-04-01T08:06:12;10.50;99.90
15455;DHT22;21057;51.024;7.540;2023-04-01T08:08:46;10.60;99.90
15455;DHT22;21057;51.024;7.540;2023-04-01T08:11:34;10.50;99.90
15455;DHT22;21057;51.024;7.540;2023-04-01T08:14:08;10.60;99.90
15455;DHT22;21057;51.024;7.540;2023-04-01T08:16:43;10.50;99.90
15455;DHT22;21057;51.024;7.540;2023-04-01T08:19:21;10.40;99.90
15455;DHT22;21057;51.024;7.540;2023-04-01T08:21:52;10.40;99.90
15455;DHT22;21057;51.024;7.540;2023-04-01T08:24:26;10.40;99.90
15455;DHT22;21057;51.024;7.540;2023-04-01T08:26:58;10.30;99.90
15455;DHT22;21057;51.024;7.540;2023-04-01T08:29:36;10.20;99.90
15455;DHT22;21057;51.024;7.540;2023-04-01T08:32:12;10.30;99.90
15455;DHT22;21057;51.024;7.540;2023-04-01T08:34:40;10.40;99.90
15455;DHT22;21057;51.024;7.540;2023-04-01T08:37:11;10.20;99.90
15455;DHT22;21057;51.024;7.540;2023-04-01T08:39:52;10.20;99.90
15455;DHT22;21057;51.024;7.540;2023-04-01T08:42:44;9.90;99.90
15455;DHT22;21057;51.024;7.540;2023-04-01T08:45:24;10.10;99.90
15455;DHT22;21057;51.024;7.540;2023-04-01T08:54:11;10.50;99.90
15455;DHT22;21057;51.024;7.540;2023-04-01T08:56:53;10.50;99.90
15455;DHT22;21057;51.024;7.540;2023-04-01T08:59:35;10.60;99.90
15455;DHT22;21057;51.024;7.540;2023-04-01T09:02:46;10.50;99.90
15455;DHT22;21057;51.024;7.540;2023-04-01T09:05:47;10.30;99.90
15455;DHT22;21057;51.024;7.540;2023-04-01T09:08:34;10.40;99.90
15455;DHT22;21057;51.024;7.540;2023-04-01T09:11:17;10.30;99.90
15455;DHT22;21057;51.024;7.540;2023-04-01T09:14:08;10.40;99.90
15455;DHT22;21057;51.024;7.540;2023-04-01T09:20:03;10.60;99.90
15455;DHT22;21057;51.024;7.540;2023-04-01T09:22:56;10.60;99.90
15455;DHT22;21057;51.024;7.540;2023-04-01T09:25:46;10.30;99.90
15455;DHT22;21057;51.024;7.540;2023-04-01T09:28:19;10.20;99.90
15455;DHT22;21057;51.024;7.540;2023-04-01T09:31:10;10.20;99.90
15455;DHT22;21057;51.024;7.540;2023-04-01T09:34:02;10.40;99.90
15455;DHT22;21057;51.024;7.540;2023-04-01T09:36:44;10.40;99.90
15455;DHT22;21057;51.024;7.540;2023-04-01T09:39:34;10.40;99.90
15455;DHT22;21057;51.024;7.540;2023-04-01T09:42:15;10.40;99.90
15455;DHT22;21057;51.024;7.540;2023-04-01T09:44:48;10.30;99.90
15455;DHT22;21057;51.024;7.540;2023-04-01T09:47:42;10.50;99.90
15455;DHT22;21057;51.024;7.540;2023-04-01T09:50:35;10.60;99.90
15455;DHT22;21057;51.024;7.540;2023-04-01T09:53:24;10.70;99.90
15455;DHT22;21057;51.024;7.540;2023-04-01T10:06:06;10.60;99.90
15455;DHT22;21057;51.024;7.540;2023-04-01T10:12:06;10.70;99.90
15455;DHT22;21057;51.024;7.540;2023-04-01T10:15:01;10.70;99.90
15455;DHT22;21057;51.024;7.540;2023-04-01T10:18:04;10.70;99.90
15455;DHT22;21057;51.024;7.540;2023-04-01T10:20:56;10.30;99.90
15455;DHT22;21057;51.024;7.540;2023-04-01T10:23:35;10.10;99.90
15455;DHT22;21057;51.024;7.540;2023-04-01T10:26:33;10.30;99.90
15455;DHT22;21057;51.024;7.540;2023-04-01T10:32:30;10.40;99.90
15455;DHT22;21057;51.024;7.540;2023-04-01T10:35:38;10.50;99.90
15455;DHT22;21057;51.024;7.540;2023-04-01T10:41:55;10.40;99.90
15455;DHT22;21057;51.024;7.540;2023-04-01T10:44:49;10.60;99.90
15455;DHT22;21057;51.024;7.540;2023-04-01T10:50:56;10.60;99.90
15455;DHT22;21057;51.024;7.540;2023-04-01T10:53:41;10.50;99.90
15455;DHT22;21057;51.024;7.540;2023-04-01T10:56:43;10.30;99.90
15455;DHT22;21057;51.024;7.540;2023-04-01T11:00:01;10.30;99.90
15455;DHT22;21057;51.024;7.540;2023-04-01T11:06:18;10.30;99.90
15455;DHT22;21057;51.024;7.540;2023-04-01T11:12:20;10.30;99.90
15455;DHT22;21057;51.024;7.540;2023-04-01T11:15:20;10.20;99.90
15455;DHT22;21057;51.024;7.540;2023-04-01T11:26:59;10.50;99.90
15455;DHT22;21057;51.024;7.540;2023-04-01T11:29:43;10.30;99.90
15455;DHT22;21057;51.024;7.540;2023-04-01T11:32:24;10.10;99.90
15455;DHT22;21057;51.024;7.540;2023-04-01T11:35:14;10.10;99.90
15455;DHT22;21057;51.024;7.540;2023-04-01T11:37:52;10.40;99.90
15455;DHT22;21057;51.024;7.540;2023-04-01T11:40:27;10.40;99.90
15455;DHT22;21057;51.024;7.540;2023-04-01T11:43:02;10.50;99.90
15455;DHT22;21057;51.024;7.540;2023-04-01T11:45:38;10.40;99.90
15455;DHT22;21057;51.024;7.540;2023-04-01T11:48:20;10.30;99.90
15455;DHT22;21057;51.024;7.540;2023-04-01T11:51:03;10.30;99.90
15455;DHT22;21057;51.024;7.540;2023-04-01T11:53:41;10.40;99.90
15455;DHT22;21057;51.024;7.540;2023-04-01T11:56:20;10.50;99.90
15455;DHT22;21057;51.024;7.540;2023-04-01T12:02:08;10.50;99.90
15455;DHT22;21057;51.024;7.540;2023-04-01T12:05:03;10.40;99.90
15455;DHT22;21057;51.024;7.540;2023-04-01T12:07:55;10.50;99.90
15455;DHT22;21057;51.024;7.540;2023-04-01T12:10:31;10.30;99.90
15455;DHT22;21057;51.024;7.540;2023-04-01T12:13:04;10.60;99.90
15455;DHT22;21057;51.024;7.540;2023-04-01T12:15:50;10.60;99.90
15455;DHT22;21057;51.024;7.540;2023-04-01T12:18:31;10.80;99.90
15455;DHT22;21057;51.024;7.540;2023-04-01T12:21:08;10.70;99.90
15455;DHT22;21057;51.024;7.540;2023-04-01T12:24:02;10.50;99.90
15455;DHT22;21057;51.024;7.540;2023-04-01T12:26:50;10.80;99.90
15455;DHT22;21057;51.024;7.540;2023-04-01T12:29:42;10.80;99.90
15455;DHT22;21057;51.024;7.540;2023-04-01T12:32:22;10.80;99.90
15455;DHT22;21057;51.024;7.540;2023-04-01T12:38:19;10.80;99.90
15455;DHT22;21057;51.024;7.540;2023-04-01T12:40:59;10.50;99.90
15455;DHT22;21057;51.024;7.540;2023-04-01T12:46:40;10.40;99.90
15455;DHT22;21057;51.024;7.540;2023-04-01T12:49:34;10.50;99.90
15455;DHT22;21057;51.024;7.540;2023-04-01T12:52:12;10.50;99.90
15455;DHT22;21057;51.024;7.540;2023-04-01T12:58:07;10.30;99.90
15455;DHT22;21057;51.024;7.540;2023-04-01T13:00:47;10.40;99.90
15455;DHT22;21057;51.024;7.540;2023-04-01T13:03:44;10.60;99.90
15455;DHT22;21057;51.024;7.540;2023-04-01T13:06:25;10.80;99.90
15455;DHT22;21057;51.024;7.540;2023-04-01T13:09:04;10.90;99.90
15455;DHT22;21057;51.024;7.540;2023-04-01T13:11:42;10.70;99.90
15455;DHT22;21057;51.024;7.540;2023-04-01T13:14:44;10.90;99.90
15455;DHT22;21057;51.024;7.540;2023-04-01T13:17:19;11.00;99.90
15455;DHT22;21057;51.024;7.540;2023-04-01T13:19:53;10.90;99.90
15455;DHT22;21057;51.024;7.540;2023-04-01T13:22:45;11.00;99.90
15455;DHT22;21057;51.024;7.540;2023-04-01T13:25:32;11.10;99.90
15455;DHT22;21057;51.024;7.540;2023-04-01T13:28:09;11.10;99.90
15455;DHT22;21057;51.024;7.540;2023-04-01T13:30:49;11.00;99.90
15455;DHT22;21057;51.024;7.540;2023-04-01T13:33:31;10.80;99.90
15455;DHT22;21057;51.024;7.540;2023-04-01T13:36:14;10.80;99.90
15455;DHT22;21057;51.024;7.540;2023-04-01T13:38:55;10.70;99.90
15455;DHT22;21057;51.024;7.540;2023-04-01T13:41:54;10.80;99.90
15455;DHT22;21057;51.024;7.540;2023-04-01T13:44:31;10.80;99.90
15455;DHT22;21057;51.024;7.540;2023-04-01T13:50:08;10.70;99.90
15455;DHT22;21057;51.024;7.540;2023-04-01T13:52:59;10.70;99.90
15455;DHT22;21057;51.024;7.540;2023-04-01T13:58:57;10.80;99.90
15455;DHT22;21057;51.024;7.540;2023-04-01T14:01:31;11.10;99.90
15455;DHT22;21057;51.024;7.540;2023-04-01T14:04:24;11.10;99.90
15455;DHT22;21057;51.024;7.540;2023-04-01T14:07:08;10.90;99.90
15455;DHT22;21057;51.024;7.540;2023-04-01T14:10:02;10.80;99.90
15455;DHT22;21057;51.024;7.540;2023-04-01T14:12:37;11.00;99.90
15455;DHT22;21057;51.024;7.540;2023-04-01T14:15:26;11.10;99.90
15455;DHT22;21057;51.024;7.540;2023-04-01T14:18:27;11.40;99.90
15455;DHT22;21057;51.024;7.540;2023-04-01T14:21:19;11.40;99.90
15455;DHT22;21057;51.024;7.540;2023-04-01T14:27:09;10.90;99.90
15455;DHT22;21057;51.024;7.540;2023-04-01T14:29:46;10.90;99.90
15455;DHT22;21057;51.024;7.540;2023-04-01T14:32:22;11.00;99.90
15455;DHT22;21057;51.024;7.540;2023-04-01T14:34:59;10.80;99.90
15455;DHT22;21057;51.024;7.540;2023-04-01T14:37:50;10.70;99.90
15455;DHT22;21057;51.024;7.540;2023-04-01T14:40:33;10.60;99.90
15455;DHT22;21057;51.024;7.540;2023-04-01T14:43:20;10.80;99.90
15455;DHT22;21057;51.024;7.540;2023-04-01T14:49:15;11.10;99.90
15455;DHT22;21057;51.024;7.540;2023-04-01T14:51:44;11.00;99.90
15455;DHT22;21057;51.024;7.540;2023-04-01T14:54:14;10.80;99.90
15455;DHT22;21057;51.024;7.540;2023-04-01T14:56:50;11.00;99.90
15455;DHT22;21057;51.024;7.540;2023-04-01T14:59:27;11.10;99.90
15455;DHT22;21057;51.024;7.540;2023-04-01T15:02:00;11.20;99.90
15455;DHT22;21057;51.024;7.540;2023-04-01T15:05:00;11.00;99.90
15455;DHT22;21057;51.024;7.540;2023-04-01T15:10:56;10.90;99.90
15455;DHT22;21057;51.024;7.540;2023-04-01T15:13:50;10.60;99.90
15455;DHT22;21057;51.024;7.540;2023-04-01T15:16:34;10.60;99.90
15455;DHT22;21057;51.024;7.540;2023-04-01T15:19:15;10.70;99.90
15455;DHT22;21057;51.024;7.540;2023-04-01T15:22:18;10.80;99.90
15455;DHT22;21057;51.024;7.540;2023-04-01T15:25:00;10.80;99.90
15455;DHT22;21057;51.024;7.540;2023-04-01T15:27:44;10.70;99.90
15455;DHT22;21057;51.024;7.540;2023-04-01T15:30:28;10.60;99.90
15455;DHT22;21057;51.024;7.540;2023-04-01T15:33:23;10.70;99.90
15455;DHT22;21057;51.024;7.540;2023-04-01T15:35:58;10.70;99.90
15455;DHT22;21057;51.024;7.540;2023-04-01T15:38:38;10.80;99.90
15455;DHT22;21057;51.024;7.540;2023-04-01T15:41:14;10.80;99.90
15455;DHT22;21057;51.024;7.540;2023-04-01T15:43:45;10.80;99.90
15455;DHT22;21057;51.024;7.540;2023-04-01T15:46:44;10.80;99.90
15455;DHT22;21057;51.024;7.540;2023-04-01T15:49:33;10.80;99.90
15455;DHT22;21057;51.024;7.540;2023-04-01T15:52:21;10.70;99.90
15455;DHT22;21057;51.024;7.540;2023-04-01T15:55:20;10.50;99.90
15455;DHT22;21057;51.024;7.540;2023-04-01T15:58:18;10.40;99.90
15455;DHT22;21057;51.024;7.540;2023-04-01T16:01:17;10.30;99.90
15455;DHT22;21057;51.024;7.540;2023-04-01T16:03:54;10.30;99.90
15455;DHT22;21057;51.024;7.540;2023-04-01T16:06:41;10.40;99.90
15455;DHT22;21057;51.024;7.540;2023-04-01T16:09:21;10.40;99.90
15455;DHT22;21057;51.024;7.540;2023-04-01T16:11:57;10.50;99.90
15455;DHT22;21057;51.024;7.540;2023-04-01T16:14:38;10.40;99.90
15455;DHT22;21057;51.024;7.540;2023-04-01T16:17:23;10.50;99.90
15455;DHT22;21057;51.024;7.540;2023-04-01T16:19:56;10.60;99.90
15455;DHT22;21057;51.024;7.540;2023-04-01T16:22:31;10.80;99.90
15455;DHT22;21057;51.024;7.540;2023-04-01T16:25:20;10.60;99.90
15455;DHT22;21057;51.024;7.540;2023-04-01T16:28:09;10.60;99.90
15455;DHT22;21057;51.024;7.540;2023-04-01T16:30:45;10.30;99.90
15455;DHT22;21057;51.024;7.540;2023-04-01T16:33:22;10.10;99.90
15455;DHT22;21057;51.024;7.540;2023-04-01T16:36:08;10.10;99.90
15455;DHT22;21057;51.024;7.540;2023-04-01T16:38:39;10.20;99.90
15455;DHT22;21057;51.024;7.540;2023-04-01T16:41:24;10.10;99.90
15455;DHT22;21057;51.024;7.540;2023-04-01T16:44:14;9.90;99.90
15455;DHT22;21057;51.024;7.540;2023-04-01T16:46:45;10.20;99.90
15455;DHT22;21057;51.024;7.540;2023-04-01T16:49:36;10.10;99.90
15455;DHT22;21057;51.024;7.540;2023-04-01T16:52:32;10.10;99.90
15455;DHT22;21057;51.024;7.540;2023-04-01T16:55:08;10.30;99.90
15455;DHT22;21057;51.024;7.540;2023-04-01T16:57:46;10.60;99.90
15455;DHT22;21057;51.024;7.540;2023-04-01T17:00:22;10.30;99.90
15455;DHT22;21057;51.024;7.540;2023-04-01T17:03:03;10.20;99.90
15455;DHT22;21057;51.024;7.540;2023-04-01T17:05:43;10.30;99.90
15455;DHT22;21057;51.024;7.540;2023-04-01T17:08:22;10.40;99.90
15455;DHT22;21057;51.024;7.540;2023-04-01T17:10:56;10.60;99.90
15455;DHT22;21057;51.024;7.540;2023-04-01T17:13:47;10.50;99.90
15455;DHT22;21057;51.024;7.540;2023-04-01T17:19:21;10.60;99.90
15455;DHT22;21057;51.024;7.540;2023-04-01T17:21:57;10.70;99.90
15455;DHT22;21057;51.024;7.540;2023-04-01T17:24:46;10.70;99.90
15455;DHT22;21057;51.024;7.540;2023-04-01T17:27:28;10.50;99.90
15455;DHT22;21057;51.024;7.540;2023-04-01T17:30:19;10.50;99.90
15455;DHT22;21057;51.024;7.540;2023-04-01T17:33:01;10.30;99.90
15455;DHT22;21057;51.024;7.540;2023-04-01T17:35:33;10.30;99.90
15455;DHT22;21057;51.024;7.540;2023-04-01T17:38:12;10.30;99.90
15455;DHT22;21057;51.024;7.540;2023-04-01T17:40:50;10.30;99.90
15455;DHT22;21057;51.024;7.540;2023-04-01T17:43:28;10.30;99.90
15455;DHT22;21057;51.024;7.540;2023-04-01T17:46:19;10.50;99.90
15455;DHT22;21057;51.024;7.540;2023-04-01T17:49:00;10.40;99.90
15455;DHT22;21057;51.024;7.540;2023-04-01T17:51:33;10.30;99.90
15455;DHT22;21057;51.024;7.540;2023-04-01T17:54:14;10.30;99.90
15455;DHT22;21057;51.024;7.540;2023-04-01T17:57:07;10.40;99.90
15455;DHT22;21057;51.024;7.540;2023-04-01T17:59:38;10.50;99.90
15455;DHT22;21057;51.024;7.540;2023-04-01T18:02:16;10.50;99.90
15455;DHT22;21057;51.024;7.540;2023-04-01T18:05:05;10.60;99.90
15455;DHT22;21057;51.024;7.540;2023-04-01T18:11:08;10.40;99.90